Time;durP1;ratioP1;P1;durP2;ratioP2;P2;SDS_P1;SDS_P2;PMS_P1;PMS_P2;Temp;Humidity;BMP_temperature;BMP_pressure;BME280_temperature;BME280_humidity;BME280_pressure;Samples;Min_cycle;Max_cycle;Signal;HPM_P1;HPM_P2
2021/04/24 00:00:41;;;;;;;9.20;4.60;;;9.10;55.80;;;;;;5104858;28;20251;-70
2021/04/24 00:03:08;;;;;;;9.53;5.20;;;9.10;55.60;;;;;;5106794;28;20437;-69
2021/04/24 00:05:41;;;;;;;14.10;5.00;;;9.10;55.70;;;;;;5096988;28;20212;-70
2021/04/24 00:08:09;;;;;;;14.80;4.73;;;9.00;55.40;;;;;;5110838;28;20462;-70
2021/04/24 00:10:37;;;;;;;8.50;4.93;;;9.00;55.70;;;;;;5097220;28;20849;-70
2021/04/24 00:13:06;;;;;;;10.17;4.80;;;9.00;55.70;;;;;;5110331;27;20927;-68
2021/04/24 00:15:33;;;;;;;16.20;5.50;;;9.00;56.20;;;;;;5105921;28;20486;-70
2021/04/24 00:17:58;;;;;;;9.80;4.33;;;8.90;56.40;;;;;;5108544;28;20427;-68
2021/04/24 00:20:25;;;;;;;9.73;4.53;;;8.90;56.40;;;;;;5104432;28;20444;-70
2021/04/24 00:22:52;;;;;;;8.20;4.83;;;8.90;56.80;;;;;;5092256;28;20240;-69
2021/04/24 00:25:17;;;;;;;10.97;4.97;;;8.90;57.20;;;;;;5092434;28;20536;-70
2021/04/24 00:27:43;;;;;;;9.87;5.33;;;8.80;57.70;;;;;;5091758;28;20836;-70
2021/04/24 00:30:11;;;;;;;9.77;4.97;;;8.80;58.20;;;;;;5099915;28;21115;-69
2021/04/24 00:32:38;;;;;;;12.47;4.90;;;8.80;58.50;;;;;;5112041;28;20433;-67
2021/04/24 00:35:05;;;;;;;10.87;5.37;;;8.80;58.80;;;;;;5118369;27;20449;-69
2021/04/24 00:37:31;;;;;;;13.60;5.27;;;8.80;59.10;;;;;;5129339;28;20424;-69
2021/04/24 00:39:57;;;;;;;11.80;5.43;;;8.70;59.20;;;;;;5116559;28;20947;-70
2021/04/24 00:42:23;;;;;;;8.43;4.87;;;8.70;59.30;;;;;;5112298;28;20267;-70
2021/04/24 00:44:53;;;;;;;9.23;4.73;;;8.70;59.50;;;;;;5111228;28;20210;-70
2021/04/24 00:47:21;;;;;;;10.20;4.80;;;8.60;59.70;;;;;;5112665;28;20453;-69
2021/04/24 00:49:47;;;;;;;12.70;4.93;;;8.60;60.00;;;;;;5115083;28;20427;-70
2021/04/24 00:52:13;;;;;;;8.50;5.20;;;8.60;60.40;;;;;;5111960;28;20416;-69
2021/04/24 00:54:38;;;;;;;8.50;5.30;;;8.60;60.60;;;;;;5112141;28;20427;-69
2021/04/24 00:57:07;;;;;;;15.33;5.47;;;8.50;60.90;;;;;;5111704;28;20564;-69
2021/04/24 00:59:36;;;;;;;13.00;5.13;;;8.50;61.00;;;;;;5111523;28;20186;-70
2021/04/24 01:02:03;;;;;;;14.63;5.83;;;8.50;61.20;;;;;;5111849;28;20803;-69
2021/04/24 01:04:28;;;;;;;10.30;4.87;;;8.40;61.50;;;;;;5112074;28;20420;-70
2021/04/24 01:06:54;;;;;;;13.77;5.40;;;8.40;61.70;;;;;;5111739;28;20489;-69
2021/04/24 01:09:20;;;;;;;9.80;4.83;;;8.40;61.90;;;;;;5101739;27;20589;-69
2021/04/24 01:11:46;;;;;;;10.70;5.07;;;8.40;61.90;;;;;;5092072;28;20211;-67
2021/04/24 01:14:12;;;;;;;11.47;5.77;;;8.40;62.00;;;;;;5090660;28;20966;-69
2021/04/24 01:16:38;;;;;;;14.40;5.73;;;8.40;62.00;;;;;;5096684;28;20424;-69
2021/04/24 01:19:04;;;;;;;9.80;5.00;;;8.40;62.00;;;;;;5114518;28;20435;-69
2021/04/24 01:21:31;;;;;;;11.03;5.20;;;8.30;62.30;;;;;;5097000;28;20445;-69
2021/04/24 01:23:56;;;;;;;10.33;5.23;;;8.30;61.90;;;;;;5091661;28;20433;-70
2021/04/24 01:26:23;;;;;;;10.33;5.47;;;8.20;61.90;;;;;;5091311;28;20873;-68
2021/04/24 01:28:48;;;;;;;11.33;5.27;;;8.10;62.30;;;;;;5090655;28;20282;-68
2021/04/24 01:31:15;;;;;;;13.93;5.73;;;8.00;62.90;;;;;;5096131;28;20527;-71
2021/04/24 01:33:42;;;;;;;12.20;6.07;;;7.90;63.10;;;;;;5111562;28;20447;-69
2021/04/24 01:36:08;;;;;;;11.63;5.57;;;7.90;63.10;;;;;;5111090;28;20570;-69
2021/04/24 01:38:34;;;;;;;14.27;6.10;;;7.80;63.40;;;;;;5098824;28;20516;-68
2021/04/24 01:41:00;;;;;;;16.23;6.37;;;7.80;63.80;;;;;;5109703;28;20447;-69
2021/04/24 01:43:26;;;;;;;12.77;5.77;;;7.70;64.20;;;;;;5110443;28;20809;-68
2021/04/24 01:45:52;;;;;;;12.73;5.47;;;7.70;64.80;;;;;;5111271;28;20460;-70
2021/04/24 01:48:18;;;;;;;14.80;5.40;;;7.60;65.10;;;;;;5110686;28;20465;-69
2021/04/24 01:50:46;;;;;;;11.00;5.80;;;7.60;65.60;;;;;;5109786;28;20241;-69
2021/04/24 01:53:17;;;;;;;11.60;5.93;;;7.70;65.40;;;;;;5100187;28;20215;-69
2021/04/24 01:55:43;;;;;;;13.43;5.90;;;7.60;65.10;;;;;;5108985;28;20481;-68
2021/04/24 01:58:11;;;;;;;13.83;5.60;;;7.50;65.30;;;;;;5112474;28;20484;-69
2021/04/24 02:01:02;;;;;;;11.20;5.60;;;7.50;65.40;;;;;;5106964;28;20453;-69
2021/04/24 02:03:29;;;;;;;10.57;5.10;;;7.50;65.60;;;;;;5116273;28;20443;-70
2021/04/24 02:05:55;;;;;;;10.80;4.97;;;7.50;65.80;;;;;;5116741;28;20463;-71
2021/04/24 02:08:23;;;;;;;11.07;5.03;;;7.40;65.80;;;;;;5110719;28;20533;-69
2021/04/24 02:10:53;;;;;;;11.17;5.27;;;7.40;66.30;;;;;;5112616;28;20459;-69
2021/04/24 02:13:21;;;;;;;11.20;5.03;;;7.20;67.20;;;;;;5110780;28;20432;-69
2021/04/24 02:15:47;;;;;;;13.13;4.87;;;7.00;68.00;;;;;;5110716;27;20424;-70
2021/04/24 02:18:13;;;;;;;18.03;5.73;;;6.90;68.90;;;;;;5109961;28;20461;-68
2021/04/24 02:20:41;;;;;;;9.90;4.93;;;6.80;69.10;;;;;;5109515;28;20436;-68
2021/04/24 02:23:07;;;;;;;12.80;5.67;;;6.80;69.20;;;;;;5110407;28;20420;-70
2021/04/24 02:25:33;;;;;;;11.70;5.20;;;6.70;69.40;;;;;;5110585;28;20551;-69
2021/04/24 02:27:59;;;;;;;12.20;6.27;;;6.70;69.90;;;;;;5108863;28;20511;-69
2021/04/24 02:30:25;;;;;;;10.47;5.23;;;6.70;69.70;;;;;;5109665;28;20479;-68
2021/04/24 02:32:51;;;;;;;11.40;5.90;;;6.70;69.90;;;;;;5093039;28;20895;-69
2021/04/24 02:35:22;;;;;;;13.50;5.67;;;6.70;69.70;;;;;;5099695;28;20460;-68
2021/04/24 02:37:48;;;;;;;11.20;6.57;;;6.80;69.40;;;;;;5105510;28;20202;-69
2021/04/24 02:40:19;;;;;;;12.13;5.33;;;6.80;69.10;;;;;;5089064;28;20457;-69
2021/04/24 02:42:45;;;;;;;9.73;4.93;;;6.90;69.20;;;;;;5089160;28;20443;-68
2021/04/24 02:45:13;;;;;;;13.20;5.27;;;6.90;69.40;;;;;;5093293;28;20548;-67
2021/04/24 02:47:40;;;;;;;11.70;5.90;;;6.90;69.40;;;;;;5109640;28;20424;-70
2021/04/24 02:50:09;;;;;;;12.23;5.43;;;6.90;69.20;;;;;;5109373;28;20444;-69
2021/04/24 02:52:35;;;;;;;10.83;4.90;;;6.90;69.10;;;;;;5110250;28;20463;-69
2021/04/24 02:55:01;;;;;;;9.47;4.70;;;6.90;68.60;;;;;;5111391;28;20515;-70
2021/04/24 02:57:27;;;;;;;14.33;5.87;;;6.90;68.50;;;;;;5106557;28;20837;-68
2021/04/24 02:59:53;;;;;;;12.60;5.53;;;6.90;68.50;;;;;;5104220;28;20928;-70
2021/04/24 03:02:26;;;;;;;10.33;5.30;;;6.80;69.10;;;;;;5105570;28;20441;-68
2021/04/24 03:04:52;;;;;;;13.00;5.30;;;6.70;69.50;;;;;;5102194;28;20861;-69
2021/04/24 03:07:18;;;;;;;8.40;5.13;;;6.50;70.20;;;;;;5111458;28;20412;-69
2021/04/24 03:09:44;;;;;;;12.43;5.47;;;6.50;70.80;;;;;;5098692;28;20210;-70
2021/04/24 03:12:10;;;;;;;13.17;5.60;;;6.50;71.00;;;;;;5094241;28;20646;-70
2021/04/24 03:14:36;;;;;;;9.60;5.63;;;6.50;70.80;;;;;;5106184;28;20428;-69
2021/04/24 03:17:01;;;;;;;10.40;4.73;;;6.50;70.80;;;;;;5110400;28;20537;-69
2021/04/24 03:19:27;;;;;;;13.50;5.80;;;6.50;71.10;;;;;;5110669;28;20182;-71
2021/04/24 03:21:53;;;;;;;11.77;5.97;;;6.50;71.10;;;;;;5112507;28;20210;-68
2021/04/24 03:24:19;;;;;;;14.90;6.10;;;6.50;71.10;;;;;;5113419;28;20398;-70
2021/04/24 03:26:45;;;;;;;13.00;5.63;;;6.60;70.80;;;;;;5111725;28;20520;-68
2021/04/24 03:29:10;;;;;;;11.40;5.53;;;6.60;70.80;;;;;;5110624;28;20456;-69
2021/04/24 03:31:36;;;;;;;17.27;6.07;;;6.60;70.80;;;;;;5111736;28;20198;-69
2021/04/24 03:34:02;;;;;;;11.10;5.33;;;6.50;70.50;;;;;;5110639;28;20190;-69
2021/04/24 03:36:29;;;;;;;10.47;5.30;;;6.50;70.50;;;;;;5108078;28;20216;-69
2021/04/24 03:38:54;;;;;;;10.30;5.60;;;6.60;70.50;;;;;;5110409;28;20776;-70
2021/04/24 03:41:20;;;;;;;13.33;6.07;;;6.50;70.50;;;;;;5103971;28;20455;-68
2021/04/24 03:43:46;;;;;;;12.23;5.43;;;6.40;70.80;;;;;;5102568;28;20436;-71
2021/04/24 03:46:12;;;;;;;13.40;5.57;;;6.20;71.60;;;;;;5103518;28;20536;-68
2021/04/24 03:48:38;;;;;;;11.10;5.90;;;6.00;72.60;;;;;;5114529;28;20235;-69
2021/04/24 03:51:04;;;;;;;10.97;5.53;;;5.70;73.60;;;;;;5111397;28;20813;-68
2021/04/24 03:53:30;;;;;;;11.43;5.50;;;5.60;74.30;;;;;;5109044;28;20185;-69
2021/04/24 03:55:55;;;;;;;13.93;7.00;;;5.60;74.80;;;;;;5100413;28;20421;-68
2021/04/24 03:58:21;;;;;;;20.37;5.90;;;5.60;74.60;;;;;;5101847;28;20186;-70
2021/04/24 04:00:47;;;;;;;11.37;5.57;;;5.60;74.00;;;;;;5108566;28;20603;-69
2021/04/24 04:03:13;;;;;;;15.37;6.70;;;5.60;74.00;;;;;;5108719;28;20191;-69
2021/04/24 04:05:44;;;;;;;10.80;5.50;;;5.60;74.30;;;;;;5108978;28;20253;-70
2021/04/24 04:08:11;;;;;;;11.13;5.20;;;5.60;74.50;;;;;;5108872;28;20179;-70
2021/04/24 04:10:38;;;;;;;11.80;5.37;;;5.70;74.50;;;;;;5108052;28;20450;-70
2021/04/24 04:13:05;;;;;;;10.27;6.00;;;5.80;73.70;;;;;;5094038;28;20499;-69
2021/04/24 04:15:32;;;;;;;11.10;6.33;;;5.80;73.30;;;;;;5096739;28;20436;-68
2021/04/24 04:18:17;;;;;;;8.90;5.57;;;5.70;73.50;;;;;;5108642;28;20522;-69
2021/04/24 04:20:45;;;;;;;13.83;6.40;;;5.70;74.00;;;;;;5106909;28;20447;-69
2021/04/24 04:23:12;;;;;;;14.57;6.80;;;5.70;73.90;;;;;;5108387;28;20423;-70
2021/04/24 04:25:38;;;;;;;11.27;6.00;;;5.80;73.50;;;;;;5097372;28;20456;-69
2021/04/24 04:28:05;;;;;;;10.27;6.00;;;5.80;73.30;;;;;;5088069;28;21002;-71
2021/04/24 04:30:32;;;;;;;11.60;5.70;;;5.80;73.50;;;;;;5099631;28;20432;-69
2021/04/24 04:32:58;;;;;;;12.70;6.00;;;5.70;74.20;;;;;;5108600;28;20836;-71
2021/04/24 04:35:24;;;;;;;12.90;5.83;;;5.70;74.20;;;;;;5109085;28;20448;-70
2021/04/24 04:37:50;;;;;;;10.73;5.23;;;5.70;74.20;;;;;;5108488;28;20924;-69
2021/04/24 04:40:16;;;;;;;13.60;6.17;;;5.70;74.60;;;;;;5112414;28;20443;-69
2021/04/24 04:42:43;;;;;;;14.43;6.97;;;5.70;74.60;;;;;;5108473;28;20198;-70
2021/04/24 04:45:11;;;;;;;12.40;6.00;;;5.70;74.50;;;;;;5108640;28;20994;-71
2021/04/24 04:47:37;;;;;;;14.43;6.27;;;5.70;74.90;;;;;;5107689;28;20971;-69
2021/04/24 04:50:11;;;;;;;14.87;6.40;;;5.70;75.20;;;;;;5106646;28;20519;-69
2021/04/24 04:52:37;;;;;;;12.60;5.97;;;5.70;75.20;;;;;;5111705;28;20403;-69
2021/04/24 04:55:04;;;;;;;19.10;7.20;;;5.80;74.90;;;;;;5102183;28;20782;-68
2021/04/24 04:57:30;;;;;;;13.23;6.40;;;5.90;74.80;;;;;;5103543;28;20206;-69
2021/04/24 04:59:56;;;;;;;10.70;6.10;;;5.90;73.90;;;;;;5092440;28;20425;-69
2021/04/24 05:02:22;;;;;;;15.27;6.20;;;5.80;74.30;;;;;;5092294;28;20252;-69
2021/04/24 05:04:48;;;;;;;13.67;5.80;;;5.90;74.20;;;;;;5104623;28;20567;-70
2021/04/24 05:07:14;;;;;;;15.20;6.77;;;5.90;74.00;;;;;;5111854;28;20178;-68
2021/04/24 05:09:40;;;;;;;17.37;6.63;;;5.90;74.20;;;;;;5111469;28;20583;-69
2021/04/24 05:12:06;;;;;;;20.10;6.70;;;6.00;73.90;;;;;;5098397;28;20265;-68
2021/04/24 05:14:32;;;;;;;15.00;5.80;;;6.00;73.70;;;;;;5112537;28;20450;-69
2021/04/24 05:16:58;;;;;;;10.30;5.60;;;6.10;73.50;;;;;;5104273;28;20433;-68
2021/04/24 05:19:24;;;;;;;16.83;6.30;;;6.20;73.50;;;;;;5092062;28;20266;-69
2021/04/24 05:21:50;;;;;;;15.73;6.43;;;6.10;73.90;;;;;;5098580;28;20531;-68
2021/04/24 05:24:16;;;;;;;17.27;7.07;;;6.10;74.00;;;;;;5099119;28;20318;-70
2021/04/24 05:26:41;;;;;;;15.00;5.83;;;6.20;73.50;;;;;;5113253;28;20547;-70
2021/04/24 05:29:08;;;;;;;12.27;5.90;;;6.30;72.70;;;;;;5116013;28;20436;-71
2021/04/24 05:31:33;;;;;;;15.67;7.57;;;6.20;73.30;;;;;;5115152;28;20194;-69
2021/04/24 05:33:59;;;;;;;17.60;7.67;;;6.30;73.00;;;;;;5115207;28;20423;-70
2021/04/24 05:36:26;;;;;;;16.10;7.60;;;6.40;71.80;;;;;;5116069;28;20186;-68
2021/04/24 05:38:52;;;;;;;19.20;5.93;;;6.40;71.40;;;;;;5115218;28;20424;-69
2021/04/24 05:41:22;;;;;;;15.07;6.40;;;6.40;71.70;;;;;;5118252;28;20448;-69
2021/04/24 05:43:56;;;;;;;13.43;6.97;;;6.50;71.80;;;;;;5116462;28;20424;-70
2021/04/24 05:46:23;;;;;;;16.67;6.27;;;6.60;71.40;;;;;;5110013;28;20482;-69
2021/04/24 05:48:49;;;;;;;17.37;7.13;;;6.60;71.00;;;;;;5111062;28;20530;-68
2021/04/24 05:51:16;;;;;;;15.37;6.90;;;6.70;70.40;;;;;;5111541;28;20447;-69
2021/04/24 05:53:44;;;;;;;17.10;7.63;;;6.70;70.40;;;;;;5110923;28;20412;-71
2021/04/24 05:56:10;;;;;;;12.77;6.87;;;6.70;71.00;;;;;;5111354;28;20535;-69
2021/04/24 05:58:37;;;;;;;14.83;6.97;;;6.80;71.30;;;;;;5111814;28;20433;-70
2021/04/24 06:01:03;;;;;;;16.37;7.10;;;6.80;71.10;;;;;;5116498;28;20194;-70
2021/04/24 06:03:29;;;;;;;15.90;6.93;;;6.90;70.70;;;;;;5102571;28;20421;-69
2021/04/24 06:05:55;;;;;;;15.10;7.80;;;7.00;70.10;;;;;;5115829;28;20548;-70
2021/04/24 06:08:21;;;;;;;14.07;6.63;;;7.20;69.40;;;;;;5119154;28;20181;-70
2021/04/24 06:10:47;;;;;;;13.67;7.03;;;7.30;68.30;;;;;;5119483;28;20479;-69
2021/04/24 06:13:13;;;;;;;14.80;7.30;;;7.40;67.70;;;;;;5116183;28;20417;-68
2021/04/24 06:15:39;;;;;;;14.97;8.00;;;7.40;67.60;;;;;;5097896;28;20196;-69
2021/04/24 06:18:05;;;;;;;20.87;7.47;;;7.50;66.60;;;;;;5092663;28;20463;-67
2021/04/24 06:20:31;;;;;;;14.20;7.43;;;7.60;66.70;;;;;;5099796;28;20462;-69
2021/04/24 06:22:57;;;;;;;18.83;7.73;;;7.60;66.40;;;;;;5094564;27;20417;-70
2021/04/24 06:25:24;;;;;;;14.23;7.40;;;7.70;66.40;;;;;;5099742;28;21020;-70
2021/04/24 06:27:50;;;;;;;15.63;8.30;;;7.90;66.60;;;;;;5093881;28;20951;-69
2021/04/24 06:30:18;;;;;;;19.53;8.70;;;8.00;66.10;;;;;;5099651;28;20440;-71
2021/04/24 06:32:44;;;;;;;14.90;8.13;;;8.10;65.70;;;;;;5096708;28;21771;-68
2021/04/24 06:35:10;;;;;;;15.77;7.93;;;8.20;65.40;;;;;;5103866;28;20485;-70
2021/04/24 06:37:37;;;;;;;16.20;8.40;;;8.40;64.70;;;;;;5106823;28;20924;-70
2021/04/24 06:40:05;;;;;;;16.40;8.97;;;8.50;64.50;;;;;;5108185;28;20449;-69
2021/04/24 06:42:31;;;;;;;24.83;10.13;;;8.60;64.50;;;;;;5096182;28;20481;-71
2021/04/24 06:44:56;;;;;;;17.20;9.30;;;8.70;64.40;;;;;;5110404;28;20828;-70
2021/04/24 06:47:22;;;;;;;15.70;9.50;;;8.80;64.10;;;;;;5108148;28;20476;-71
2021/04/24 06:49:48;;;;;;;28.40;10.10;;;8.90;63.70;;;;;;5109970;28;20178;-68
2021/04/24 06:52:14;;;;;;;21.03;10.13;;;8.90;64.10;;;;;;5112994;28;20174;-69
2021/04/24 06:54:40;;;;;;;29.03;11.07;;;9.00;63.70;;;;;;5111275;28;20220;-70
2021/04/24 06:57:06;;;;;;;23.87;9.33;;;9.10;63.40;;;;;;5110150;28;20572;-69
2021/04/24 06:59:31;;;;;;;25.83;10.37;;;9.00;63.80;;;;;;5091417;28;20179;-70
2021/04/24 07:01:57;;;;;;;21.90;10.47;;;8.90;64.40;;;;;;5108696;28;20759;-69
2021/04/24 07:04:23;;;;;;;19.80;9.50;;;8.80;64.70;;;;;;5105226;28;20252;-70
2021/04/24 07:06:49;;;;;;;22.33;10.30;;;8.90;64.70;;;;;;5092725;28;20272;-72
2021/04/24 07:09:14;;;;;;;19.67;10.43;;;9.00;64.40;;;;;;5114608;28;20182;-71
2021/04/24 07:11:41;;;;;;;19.50;10.30;;;9.20;63.70;;;;;;5115641;28;20282;-72
2021/04/24 07:14:07;;;;;;;20.63;11.13;;;9.30;62.90;;;;;;5112899;28;20191;-70
2021/04/24 07:16:32;;;;;;;17.70;9.90;;;9.40;62.80;;;;;;5109846;28;20431;-70
2021/04/24 07:18:58;;;;;;;21.03;10.00;;;9.40;62.50;;;;;;5108970;28;20239;-70
2021/04/24 07:21:24;;;;;;;13.83;9.00;;;9.50;62.50;;;;;;5108703;28;20221;-68
2021/04/24 07:23:50;;;;;;;15.43;8.93;;;9.70;62.20;;;;;;5099889;28;20191;-65
2021/04/24 07:26:16;;;;;;;17.87;9.63;;;9.70;61.20;;;;;;5089469;28;20301;-66
2021/04/24 07:28:42;;;;;;;20.60;9.27;;;9.90;60.60;;;;;;5088126;28;20203;-66
2021/04/24 07:31:09;;;;;;;19.60;10.80;;;10.10;59.60;;;;;;5088743;28;20578;-66
2021/04/24 07:33:35;;;;;;;26.20;10.43;;;10.20;58.80;;;;;;5088089;28;20187;-67
2021/04/24 07:36:01;;;;;;;20.40;10.20;;;10.10;58.90;;;;;;5088219;28;20966;-67
2021/04/24 07:38:27;;;;;;;22.47;9.60;;;10.20;58.80;;;;;;5088131;28;20511;-67
2021/04/24 07:40:53;;;;;;;22.37;9.83;;;10.30;58.50;;;;;;5088145;28;20964;-67
2021/04/24 07:43:19;;;;;;;17.90;9.83;;;10.40;58.40;;;;;;5088387;28;20187;-66
2021/04/24 07:45:45;;;;;;;19.90;9.73;;;10.50;58.10;;;;;;5104226;28;20610;-67
2021/04/24 07:48:11;;;;;;;21.83;10.40;;;10.70;57.40;;;;;;5107490;28;20265;-66
2021/04/24 07:50:37;;;;;;;14.00;9.23;;;10.80;57.40;;;;;;5108825;28;20513;-66
2021/04/24 07:53:04;;;;;;;20.93;10.43;;;10.90;57.40;;;;;;5115921;28;20408;-67
2021/04/24 07:55:30;;;;;;;17.80;9.40;;;11.10;56.90;;;;;;5125913;28;20431;-70
2021/04/24 07:57:56;;;;;;;24.47;9.77;;;11.00;56.10;;;;;;5127608;28;20420;-68
2021/04/24 08:00:23;;;;;;;21.47;8.40;;;11.00;56.10;;;;;;5108898;28;20532;-69
2021/04/24 08:02:49;;;;;;;22.07;8.50;;;11.20;55.70;;;;;;5109198;28;20424;-70
2021/04/24 08:05:17;;;;;;;23.37;9.80;;;11.30;54.50;;;;;;5110640;28;20566;-69
2021/04/24 08:07:43;;;;;;;20.63;9.30;;;11.30;54.90;;;;;;5111036;28;20435;-70
2021/04/24 08:10:10;;;;;;;18.20;9.00;;;11.30;54.00;;;;;;5110823;28;20428;-69
2021/04/24 08:12:35;;;;;;;22.57;10.60;;;11.50;53.70;;;;;;5109653;28;20943;-68
2021/04/24 08:15:01;;;;;;;22.23;9.40;;;11.50;53.00;;;;;;5111131;28;20424;-69
2021/04/24 08:17:28;;;;;;;19.17;9.53;;;11.70;53.20;;;;;;5109344;28;20427;-69
2021/04/24 08:19:54;;;;;;;20.60;8.63;;;12.00;52.40;;;;;;5110616;28;20424;-69
2021/04/24 08:22:19;;;;;;;18.43;9.20;;;12.20;51.30;;;;;;5109470;28;20813;-69
2021/04/24 08:24:45;;;;;;;19.53;10.27;;;12.50;50.20;;;;;;5109270;28;20260;-70
2021/04/24 08:27:11;;;;;;;17.40;8.20;;;12.60;49.40;;;;;;5113008;28;20189;-70
2021/04/24 08:29:36;;;;;;;24.70;9.10;;;12.50;49.40;;;;;;5112922;28;20202;-69
2021/04/24 08:32:04;;;;;;;15.80;8.50;;;12.60;49.30;;;;;;5103202;28;20305;-68
2021/04/24 08:34:30;;;;;;;22.87;9.13;;;12.60;49.80;;;;;;5112971;28;20298;-68
2021/04/24 08:36:56;;;;;;;14.10;7.50;;;12.80;48.60;;;;;;5115345;28;20524;-70
2021/04/24 08:39:22;;;;;;;18.10;9.17;;;13.00;47.70;;;;;;5109697;28;20683;-70
2021/04/24 08:41:48;;;;;;;16.83;8.37;;;13.10;47.10;;;;;;5093382;28;20506;-70
2021/04/24 08:44:15;;;;;;;21.10;8.97;;;13.20;46.60;;;;;;5093282;28;20183;-69
2021/04/24 08:46:44;;;;;;;19.93;8.80;;;13.30;46.20;;;;;;5110820;28;20463;-68
2021/04/24 08:49:10;;;;;;;16.80;8.87;;;13.40;45.90;;;;;;5118582;28;20426;-69
2021/04/24 08:51:36;;;;;;;15.00;8.67;;;13.50;45.30;;;;;;5102357;28;20433;-68
2021/04/24 08:54:01;;;;;;;24.43;8.80;;;13.50;45.30;;;;;;5109388;28;20654;-69
2021/04/24 08:56:28;;;;;;;17.80;8.90;;;13.60;45.50;;;;;;5111508;28;20190;-70
2021/04/24 08:58:55;;;;;;;19.73;8.70;;;13.70;45.50;;;;;;5094408;28;20183;-70
2021/04/24 09:01:22;;;;;;;18.07;8.33;;;13.70;45.10;;;;;;5093373;28;20519;-69
2021/04/24 09:03:49;;;;;;;18.73;8.30;;;13.80;44.90;;;;;;5092784;28;20516;-69
2021/04/24 09:06:20;;;;;;;18.03;8.27;;;14.00;44.50;;;;;;5091464;28;20465;-70
2021/04/24 09:08:52;;;;;;;18.27;8.80;;;14.20;43.90;;;;;;5091261;28;20424;-69
2021/04/24 09:11:18;;;;;;;21.10;9.20;;;14.20;43.70;;;;;;5100173;28;20483;-68
2021/04/24 09:13:44;;;;;;;19.97;9.43;;;14.20;43.80;;;;;;5092915;28;20457;-70
2021/04/24 09:16:22;;;;;;;20.17;9.57;;;14.40;43.00;;;;;;5091690;28;20209;-68
2021/04/24 09:18:48;;;;;;;17.97;9.17;;;14.40;43.40;;;;;;5109050;28;20473;-68
2021/04/24 09:21:23;;;;;;;20.13;9.47;;;14.50;42.40;;;;;;5099360;28;20854;-68
2021/04/24 09:23:49;;;;;;;17.07;8.70;;;14.50;42.40;;;;;;5093727;28;20198;-69
2021/04/24 09:26:17;;;;;;;18.07;9.17;;;14.60;41.60;;;;;;5091010;28;20462;-70
2021/04/24 09:28:45;;;;;;;14.40;7.93;;;14.60;41.50;;;;;;5089598;28;20213;-71
2021/04/24 09:31:14;;;;;;;18.93;7.80;;;14.80;40.80;;;;;;5089348;28;20857;-69
2021/04/24 09:33:41;;;;;;;15.70;8.20;;;14.90;39.50;;;;;;5091076;28;20421;-69
2021/04/24 09:36:08;;;;;;;18.53;8.63;;;14.70;39.60;;;;;;5090465;28;20454;-69
2021/04/24 09:38:37;;;;;;;20.77;8.57;;;14.90;39.80;;;;;;5090840;28;20426;-70
2021/04/24 09:41:12;;;;;;;18.83;9.60;;;15.00;39.10;;;;;;5095224;28;20490;-69
2021/04/24 09:44:00;;;;;;;26.33;10.23;;;15.10;38.20;;;;;;5104350;28;20498;-69
2021/04/24 09:46:31;;;;;;;18.63;9.00;;;15.30;37.60;;;;;;5100709;28;20521;-69
2021/04/24 09:49:15;;;;;;;14.63;8.00;;;15.20;36.70;;;;;;5111615;28;20874;-70
2021/04/24 09:51:46;;;;;;;23.93;9.30;;;15.30;36.80;;;;;;5100236;28;20429;-69
2021/04/24 09:54:12;;;;;;;15.07;7.73;;;15.50;35.10;;;;;;5094888;28;20411;-69
2021/04/24 09:56:38;;;;;;;16.17;8.80;;;15.50;34.50;;;;;;5102176;28;20418;-69
2021/04/24 09:59:10;;;;;;;17.47;8.63;;;15.60;35.60;;;;;;5090088;28;20461;-68
2021/04/24 10:01:41;;;;;;;17.77;8.87;;;15.60;36.00;;;;;;5091648;28;20453;-70
2021/04/24 10:04:12;;;;;;;16.13;8.73;;;15.80;35.20;;;;;;5112473;28;20416;-68
2021/04/24 10:06:43;;;;;;;18.20;8.83;;;16.00;34.70;;;;;;5101990;28;20981;-69
2021/04/24 10:09:12;;;;;;;14.27;8.40;;;16.00;34.00;;;;;;5091494;28;20457;-68
2021/04/24 10:11:39;;;;;;;16.27;8.17;;;16.00;33.30;;;;;;5089358;28;20913;-70
2021/04/24 10:14:05;;;;;;;17.70;8.43;;;16.00;34.10;;;;;;5090618;28;20504;-70
2021/04/24 10:16:44;;;;;;;16.03;8.57;;;16.10;34.30;;;;;;5089648;28;20427;-71
2021/04/24 10:19:12;;;;;;;19.30;9.40;;;16.10;34.10;;;;;;5095802;28;20508;-68
2021/04/24 10:21:39;;;;;;;18.80;9.60;;;16.00;34.30;;;;;;5089500;28;20974;-71
2021/04/24 10:24:06;;;;;;;16.43;8.07;;;16.10;33.60;;;;;;5090168;28;20432;-68
2021/04/24 10:26:33;;;;;;;22.20;11.10;;;15.90;32.90;;;;;;5089732;28;20461;-72
2021/04/24 10:29:00;;;;;;;23.03;9.40;;;16.00;33.10;;;;;;5093580;28;20436;-69
2021/04/24 10:31:27;;;;;;;15.27;8.40;;;16.10;33.70;;;;;;5090627;28;20455;-69
2021/04/24 10:34:01;;;;;;;14.20;8.30;;;16.40;33.70;;;;;;5088267;28;20459;-68
2021/04/24 10:36:30;;;;;;;16.13;8.63;;;16.80;32.30;;;;;;5097653;28;20483;-69
2021/04/24 10:38:57;;;;;;;17.87;9.10;;;17.00;31.30;;;;;;5090927;28;20457;-70
2021/04/24 10:41:31;;;;;;;16.90;8.90;;;17.20;30.80;;;;;;5089893;28;20448;-69
2021/04/24 10:44:17;;;;;;;15.30;7.90;;;17.30;30.40;;;;;;5092083;28;20446;-69
2021/04/24 10:46:50;;;;;;;18.13;10.00;;;17.20;31.20;;;;;;5108439;28;20468;-69
2021/04/24 10:49:23;;;;;;;17.03;9.37;;;17.50;31.60;;;;;;5109492;28;20470;-70
2021/04/24 10:52:18;;;;;;;20.13;9.50;;;17.60;31.20;;;;;;5110391;28;20431;-70
2021/04/24 10:55:10;;;;;;;17.93;8.90;;;17.50;30.90;;;;;;5092738;28;20420;-70
2021/04/24 10:57:58;;;;;;;18.87;9.50;;;17.90;30.80;;;;;;5109626;28;20420;-70
2021/04/24 11:00:33;;;;;;;19.27;9.97;;;17.70;30.30;;;;;;5109888;28;20449;-69
2021/04/24 11:03:01;;;;;;;21.80;10.27;;;17.80;30.50;;;;;;5108534;28;20535;-71
2021/04/24 11:05:35;;;;;;;17.70;9.10;;;18.00;30.40;;;;;;5109640;28;20458;-69
2021/04/24 11:08:20;;;;;;;17.20;9.13;;;17.50;31.20;;;;;;5110347;28;20807;-70
2021/04/24 11:11:04;;;;;;;17.40;9.33;;;17.80;30.80;;;;;;5098629;28;20483;-70
2021/04/24 11:13:36;;;;;;;17.63;8.33;;;18.30;29.40;;;;;;5110297;28;20432;-69
2021/04/24 11:16:03;;;;;;;26.13;9.37;;;18.60;29.40;;;;;;5113562;28;20448;-68
2021/04/24 11:18:33;;;;;;;19.17;9.00;;;18.90;29.30;;;;;;5106325;28;20423;-68
2021/04/24 11:21:22;;;;;;;16.47;8.20;;;19.40;28.30;;;;;;5089273;28;20437;-70
2021/04/24 11:23:49;;;;;;;16.40;9.00;;;19.10;28.50;;;;;;5098794;28;20420;-70
2021/04/24 11:26:19;;;;;;;19.77;9.30;;;19.10;28.20;;;;;;5106414;28;20499;-68
2021/04/24 11:28:57;;;;;;;16.67;8.87;;;19.10;28.30;;;;;;5092028;28;20437;-69
2021/04/24 11:31:50;;;;;;;18.90;9.53;;;19.00;28.30;;;;;;5098179;28;20448;-70
2021/04/24 11:34:29;;;;;;;20.47;10.63;;;18.90;28.40;;;;;;5115352;28;20939;-70
2021/04/24 11:37:13;;;;;;;19.70;9.10;;;18.60;28.90;;;;;;5117514;28;20418;-69
2021/04/24 11:40:22;;;;;;;17.03;9.70;;;18.70;28.50;;;;;;5098796;28;20428;-70
2021/04/24 11:42:49;;;;;;;17.10;9.27;;;17.90;29.00;;;;;;5104141;28;20426;-69
2021/04/24 11:45:48;;;;;;;17.20;8.27;;;18.30;28.90;;;;;;5108898;28;20574;-69
2021/04/24 11:48:16;;;;;;;20.77;9.30;;;18.40;28.50;;;;;;5098787;28;20488;-69
2021/04/24 11:50:44;;;;;;;21.43;8.93;;;18.70;27.50;;;;;;5103740;28;20465;-69
2021/04/24 11:53:11;;;;;;;14.00;8.17;;;18.70;28.10;;;;;;5098608;28;20496;-69
2021/04/24 11:55:39;;;;;;;22.37;8.17;;;19.30;27.30;;;;;;5107232;28;20502;-71
2021/04/24 11:58:09;;;;;;;16.57;8.70;;;19.30;27.10;;;;;;5108883;28;20411;-70
2021/04/24 12:00:36;;;;;;;16.40;9.17;;;18.70;27.10;;;;;;5099140;28;20439;-68
2021/04/24 12:03:02;;;;;;;16.17;8.90;;;18.30;28.00;;;;;;5113055;28;20940;-69
2021/04/24 12:05:28;;;;;;;15.03;8.90;;;18.30;27.40;;;;;;5112942;28;20459;-68
2021/04/24 12:07:54;;;;;;;22.17;8.63;;;18.30;27.30;;;;;;5113239;28;20498;-70
2021/04/24 12:10:27;;;;;;;18.07;9.83;;;18.30;27.30;;;;;;5113291;28;20202;-72
2021/04/24 12:12:53;;;;;;;18.47;9.30;;;18.50;27.40;;;;;;5113700;28;20184;-70
2021/04/24 12:15:24;;;;;;;17.30;8.73;;;18.90;27.10;;;;;;5098931;28;20439;-71
2021/04/24 12:18:06;;;;;;;17.70;9.00;;;18.70;27.10;;;;;;5118222;28;20196;-70
2021/04/24 12:20:37;;;;;;;18.50;9.50;;;18.50;27.10;;;;;;5128887;28;20447;-70
2021/04/24 12:23:05;;;;;;;17.40;8.77;;;18.80;27.00;;;;;;5119776;28;20450;-70
2021/04/24 12:25:33;;;;;;;13.77;8.07;;;18.80;27.00;;;;;;5112943;28;20471;-69
2021/04/24 12:28:02;;;;;;;18.27;8.73;;;19.20;26.80;;;;;;5100068;28;20427;-69
2021/04/24 12:30:35;;;;;;;18.70;9.77;;;19.30;26.20;;;;;;5103419;28;20429;-71
2021/04/24 12:33:04;;;;;;;17.67;8.63;;;19.30;25.90;;;;;;5109639;28;20427;-71
2021/04/24 12:35:32;;;;;;;17.00;7.80;;;19.50;26.50;;;;;;5124537;28;20420;-71
2021/04/24 12:38:10;;;;;;;18.70;9.17;;;19.80;25.70;;;;;;5112320;28;20511;-69
2021/04/24 12:40:38;;;;;;;17.60;9.00;;;19.60;25.90;;;;;;5111531;28;20577;-72
2021/04/24 12:43:10;;;;;;;17.13;8.87;;;19.70;25.60;;;;;;5112695;28;20461;-70
2021/04/24 12:45:39;;;;;;;20.33;8.73;;;19.20;26.00;;;;;;5113175;28;20463;-69
2021/04/24 12:48:12;;;;;;;15.17;8.20;;;19.00;26.40;;;;;;5114106;27;20424;-69